Sanko Kairyu — JI3709 — position and weather

sailwx.info

Track history (hours):
 
Tides and Currents Weather Stations Pressure Air Temp Water Temp Dewpoint Dewpoint Depression Visibility Wind Speed Wind Dir Waves Ship Positions

Sanko Kairyu

Last reported at 2018-Jun-19 02:52 UTC. Time now 2018-Jun-20 11:26 UTC.
Position N 34°19' E 135°04'.

Length 38 m.

Type: Tanker. MMSI: 431301672.

Date/timePositionNaut miles runAvg speedWind from/ knotsBaromVisibWave heightAir tempDewpointWater temp
2018-Jun-19 02:52N 34°19' E 135°04'4 8.8
2018-Jun-19 02:27N 34°15' E 135°03'4 9.4
2018-Jun-19 02:00N 34°11' E 135°03'0 0.1
2018-Jun-18 19:05N 34°11' E 135°03'1 9.2
2018-Jun-18 18:59N 34°12' E 135°03'5 9.2
2018-Jun-18 18:29N 34°16' E 135°03'510.2
2018-Jun-18 18:00N 34°21' E 135°06'5 9.5
2018-Jun-18 17:30N 34°25' E 135°09'14 9.0
2018-Jun-18 15:57N 34°34' E 135°22'  
2018-Jun-16 05:28N 34°17' E 135°04'4 7.7
2018-Jun-16 05:00N 34°14' E 135°05'7 2.0
2018-Jun-16 01:22N 34°09' E 135°12'8 4.2
2018-Jun-15 23:34N 34°13' E 135°05'1 9.4
2018-Jun-15 23:30N 34°14' E 135°05'4 7.8
2018-Jun-15 23:00N 34°18' E 135°04'5 9.3
2018-Jun-15 22:29N 34°22' E 135°07'510.4
2018-Jun-15 21:57N 34°26' E 135°11'510.3
2018-Jun-15 21:29N 34°29' E 135°15'7 9.8
2018-Jun-15 20:44N 34°34' E 135°22'3 9.5
2018-Jun-15 20:25N 34°36' E 135°25'3 0.2
2018-Jun-15 04:27N 34°39' E 135°26'5 8.6
2018-Jun-15 03:55N 34°41' E 135°21'4 9.2
2018-Jun-15 03:30N 34°42' E 135°17'4 8.8
2018-Jun-15 03:00N 34°40' E 135°12'2 3.3
2018-Jun-15 02:30N 34°39' E 135°11'2 2.4
2018-Jun-15 01:34N 34°39' E 135°08'0 0.0
2018-Jun-15 01:16N 34°39' E 135°08'0 0.0
2018-Jun-15 00:58N 34°39' E 135°08'0 0.0
2018-Jun-15 00:28N 34°39' E 135°08'0 0.0
2018-Jun-14 23:55N 34°39' E 135°08'1 2.4
2018-Jun-14 23:29N 34°39' E 135°10'4 7.3
2018-Jun-14 22:59N 34°39' E 135°14'5 9.9
2018-Jun-14 22:29N 34°39' E 135°20'5 0.1
2018-Jun-13 00:20N 34°37' E 135°25'2 0.0
2018-Jun-11 13:46N 34°39' E 135°26'2 9.2
2018-Jun-11 13:30N 34°38' E 135°23'5 9.5
2018-Jun-11 12:56N 34°38' E 135°17'4 9.5
2018-Jun-11 12:30N 34°37' E 135°12'5 9.2
2018-Jun-11 12:00N 34°37' E 135°06'  
2018-Jun-09 05:58N 34°37' E 135°05'510.4
2018-Jun-09 05:30N 34°39' E 135°11'3 6.6
2018-Jun-09 05:00N 34°40' E 135°14'0 0.1
2018-Jun-09 04:25N 34°40' E 135°14'0 0.0
2018-Jun-09 03:55N 34°40' E 135°14'0 0.0
2018-Jun-09 03:19N 34°40' E 135°14'0 0.0
2018-Jun-09 02:55N 34°40' E 135°14'  
Track history (hours):
 
Tides and Currents Weather Stations Pressure Air Temp Water Temp Dewpoint Dewpoint Depression Visibility Wind Speed Wind Dir Waves Ship Positions

Sanko Kairyu

Last reported at 2018-Jun-19 02:52 UTC. Time now 2018-Jun-20 11:26 UTC.
Position N 34°19' E 135°04'.

Length 38 m.

Type: Tanker. MMSI: 431301672.

Date/timePositionNaut miles runAvg speedWind from/ knotsBaromVisibWave heightAir tempDewpointWater temp
2018-Jun-19 02:52N 34°19' E 135°04'4 8.8
2018-Jun-19 02:27N 34°15' E 135°03'4 9.4
2018-Jun-19 02:00N 34°11' E 135°03'0 0.1
2018-Jun-18 19:05N 34°11' E 135°03'1 9.2
2018-Jun-18 18:59N 34°12' E 135°03'5 9.2
2018-Jun-18 18:29N 34°16' E 135°03'510.2
2018-Jun-18 18:00N 34°21' E 135°06'5 9.5
2018-Jun-18 17:30N 34°25' E 135°09'14 9.0
2018-Jun-18 15:57N 34°34' E 135°22'  
2018-Jun-16 05:28N 34°17' E 135°04'4 7.7
2018-Jun-16 05:00N 34°14' E 135°05'7 2.0
2018-Jun-16 01:22N 34°09' E 135°12'8 4.2
2018-Jun-15 23:34N 34°13' E 135°05'1 9.4
2018-Jun-15 23:30N 34°14' E 135°05'4 7.8
2018-Jun-15 23:00N 34°18' E 135°04'5 9.3
2018-Jun-15 22:29N 34°22' E 135°07'510.4
2018-Jun-15 21:57N 34°26' E 135°11'510.3
2018-Jun-15 21:29N 34°29' E 135°15'7 9.8
2018-Jun-15 20:44N 34°34' E 135°22'3 9.5
2018-Jun-15 20:25N 34°36' E 135°25'3 0.2
2018-Jun-15 04:27N 34°39' E 135°26'5 8.6
2018-Jun-15 03:55N 34°41' E 135°21'4 9.2
2018-Jun-15 03:30N 34°42' E 135°17'4 8.8
2018-Jun-15 03:00N 34°40' E 135°12'2 3.3
2018-Jun-15 02:30N 34°39' E 135°11'2 2.4
2018-Jun-15 01:34N 34°39' E 135°08'0 0.0
2018-Jun-15 01:16N 34°39' E 135°08'0 0.0
2018-Jun-15 00:58N 34°39' E 135°08'0 0.0
2018-Jun-15 00:28N 34°39' E 135°08'0 0.0
2018-Jun-14 23:55N 34°39' E 135°08'1 2.4
2018-Jun-14 23:29N 34°39' E 135°10'4 7.3
2018-Jun-14 22:59N 34°39' E 135°14'5 9.9
2018-Jun-14 22:29N 34°39' E 135°20'5 0.1
2018-Jun-13 00:20N 34°37' E 135°25'2 0.0
2018-Jun-11 13:46N 34°39' E 135°26'2 9.2
2018-Jun-11 13:30N 34°38' E 135°23'5 9.5
2018-Jun-11 12:56N 34°38' E 135°17'4 9.5
2018-Jun-11 12:30N 34°37' E 135°12'5 9.2
2018-Jun-11 12:00N 34°37' E 135°06'  
2018-Jun-09 05:58N 34°37' E 135°05'510.4
2018-Jun-09 05:30N 34°39' E 135°11'3 6.6
2018-Jun-09 05:00N 34°40' E 135°14'0 0.1
2018-Jun-09 04:25N 34°40' E 135°14'0 0.0
2018-Jun-09 03:55N 34°40' E 135°14'0 0.0
2018-Jun-09 03:19N 34°40' E 135°14'0 0.0
2018-Jun-09 02:55N 34°40' E 135°14'  

Dump ship's entire track history